sensor_id;sensor_type;location;lat;lon;timestamp;P1;durP1;ratioP1;P2;durP2;ratioP2
68475;SDS011;55464;48.266;14.188;2024-02-16T00:00:25;8.77;;;5.53;;
68475;SDS011;55464;48.266;14.188;2024-02-16T00:02:51;13.07;;;5.78;;
68475;SDS011;55464;48.266;14.188;2024-02-16T00:05:17;10.48;;;5.30;;
68475;SDS011;55464;48.266;14.188;2024-02-16T00:07:43;9.25;;;5.75;;
68475;SDS011;55464;48.266;14.188;2024-02-16T00:10:09;8.32;;;5.90;;
68475;SDS011;55464;48.266;14.188;2024-02-16T00:12:35;15.10;;;6.53;;
68475;SDS011;55464;48.266;14.188;2024-02-16T00:15:02;9.60;;;6.47;;
68475;SDS011;55464;48.266;14.188;2024-02-16T00:17:28;10.55;;;6.45;;
68475;SDS011;55464;48.266;14.188;2024-02-16T00:19:54;12.13;;;7.53;;
68475;SDS011;55464;48.266;14.188;2024-02-16T00:22:23;12.88;;;7.15;;
68475;SDS011;55464;48.266;14.188;2024-02-16T00:24:48;14.60;;;7.38;;
68475;SDS011;55464;48.266;14.188;2024-02-16T00:27:14;11.77;;;7.13;;
68475;SDS011;55464;48.266;14.188;2024-02-16T00:29:40;11.70;;;6.78;;
68475;SDS011;55464;48.266;14.188;2024-02-16T00:32:07;12.52;;;7.05;;
68475;SDS011;55464;48.266;14.188;2024-02-16T00:34:33;16.63;;;7.20;;
68475;SDS011;55464;48.266;14.188;2024-02-16T00:36:59;11.50;;;7.57;;
68475;SDS011;55464;48.266;14.188;2024-02-16T00:39:25;10.90;;;7.70;;
68475;SDS011;55464;48.266;14.188;2024-02-16T00:41:51;13.30;;;7.97;;
68475;SDS011;55464;48.266;14.188;2024-02-16T00:44:17;14.82;;;7.85;;
68475;SDS011;55464;48.266;14.188;2024-02-16T00:46:43;13.13;;;8.15;;
68475;SDS011;55464;48.266;14.188;2024-02-16T00:49:09;13.60;;;7.93;;
68475;SDS011;55464;48.266;14.188;2024-02-16T00:51:35;13.55;;;8.45;;
68475;SDS011;55464;48.266;14.188;2024-02-16T00:54:02;14.82;;;8.80;;
68475;SDS011;55464;48.266;14.188;2024-02-16T00:56:28;15.27;;;9.48;;
68475;SDS011;55464;48.266;14.188;2024-02-16T00:58:54;14.50;;;8.73;;
68475;SDS011;55464;48.266;14.188;2024-02-16T01:01:20;15.23;;;9.10;;
68475;SDS011;55464;48.266;14.188;2024-02-16T01:03:47;18.42;;;9.68;;
68475;SDS011;55464;48.266;14.188;2024-02-16T01:06:13;11.25;;;8.25;;
68475;SDS011;55464;48.266;14.188;2024-02-16T01:08:39;14.27;;;9.35;;
68475;SDS011;55464;48.266;14.188;2024-02-16T01:11:04;14.13;;;9.10;;
68475;SDS011;55464;48.266;14.188;2024-02-16T01:13:30;11.10;;;7.85;;
68475;SDS011;55464;48.266;14.188;2024-02-16T01:15:56;14.32;;;8.90;;
68475;SDS011;55464;48.266;14.188;2024-02-16T01:18:22;12.43;;;8.38;;
68475;SDS011;55464;48.266;14.188;2024-02-16T01:20:47;11.90;;;8.35;;
68475;SDS011;55464;48.266;14.188;2024-02-16T01:23:13;11.25;;;8.35;;
68475;SDS011;55464;48.266;14.188;2024-02-16T01:25:38;14.38;;;7.97;;
68475;SDS011;55464;48.266;14.188;2024-02-16T01:28:04;15.40;;;8.95;;
68475;SDS011;55464;48.266;14.188;2024-02-16T01:30:29;16.13;;;9.43;;
68475;SDS011;55464;48.266;14.188;2024-02-16T01:32:55;15.10;;;8.90;;
68475;SDS011;55464;48.266;14.188;2024-02-16T01:35:20;15.77;;;9.50;;
68475;SDS011;55464;48.266;14.188;2024-02-16T01:37:46;14.25;;;8.65;;
68475;SDS011;55464;48.266;14.188;2024-02-16T01:40:12;17.10;;;9.52;;
68475;SDS011;55464;48.266;14.188;2024-02-16T01:42:39;14.05;;;8.48;;
68475;SDS011;55464;48.266;14.188;2024-02-16T01:45:06;17.10;;;8.82;;
68475;SDS011;55464;48.266;14.188;2024-02-16T01:47:33;13.75;;;9.48;;
68475;SDS011;55464;48.266;14.188;2024-02-16T01:49:59;15.88;;;8.90;;
68475;SDS011;55464;48.266;14.188;2024-02-16T01:52:25;15.98;;;9.80;;
68475;SDS011;55464;48.266;14.188;2024-02-16T01:54:51;14.05;;;9.10;;
68475;SDS011;55464;48.266;14.188;2024-02-16T01:57:16;15.60;;;9.65;;
68475;SDS011;55464;48.266;14.188;2024-02-16T01:59:42;15.07;;;9.60;;
68475;SDS011;55464;48.266;14.188;2024-02-16T02:02:08;15.20;;;9.07;;
68475;SDS011;55464;48.266;14.188;2024-02-16T02:04:33;17.30;;;9.35;;
68475;SDS011;55464;48.266;14.188;2024-02-16T02:06:59;14.68;;;9.52;;
68475;SDS011;55464;48.266;14.188;2024-02-16T02:09:24;16.83;;;9.80;;
68475;SDS011;55464;48.266;14.188;2024-02-16T02:11:50;16.45;;;10.80;;
68475;SDS011;55464;48.266;14.188;2024-02-16T02:14:17;16.58;;;9.55;;
68475;SDS011;55464;48.266;14.188;2024-02-16T02:16:42;18.33;;;9.63;;
68475;SDS011;55464;48.266;14.188;2024-02-16T02:19:08;17.60;;;10.57;;
68475;SDS011;55464;48.266;14.188;2024-02-16T02:21:33;16.50;;;10.48;;
68475;SDS011;55464;48.266;14.188;2024-02-16T02:23:58;18.27;;;11.38;;
68475;SDS011;55464;48.266;14.188;2024-02-16T02:26:24;21.45;;;11.05;;
68475;SDS011;55464;48.266;14.188;2024-02-16T02:28:50;16.35;;;10.82;;
68475;SDS011;55464;48.266;14.188;2024-02-16T02:31:15;21.08;;;11.85;;
68475;SDS011;55464;48.266;14.188;2024-02-16T02:33:41;21.67;;;12.15;;
68475;SDS011;55464;48.266;14.188;2024-02-16T02:36:06;18.40;;;12.30;;
68475;SDS011;55464;48.266;14.188;2024-02-16T02:38:32;20.27;;;13.13;;
68475;SDS011;55464;48.266;14.188;2024-02-16T02:40:58;19.25;;;11.73;;
68475;SDS011;55464;48.266;14.188;2024-02-16T02:43:23;20.05;;;13.40;;
68475;SDS011;55464;48.266;14.188;2024-02-16T02:45:49;25.83;;;13.30;;
68475;SDS011;55464;48.266;14.188;2024-02-16T02:48:14;21.17;;;13.82;;
68475;SDS011;55464;48.266;14.188;2024-02-16T02:50:40;23.20;;;13.18;;
68475;SDS011;55464;48.266;14.188;2024-02-16T02:53:05;21.80;;;13.18;;
68475;SDS011;55464;48.266;14.188;2024-02-16T02:55:31;20.30;;;12.85;;
68475;SDS011;55464;48.266;14.188;2024-02-16T02:57:56;25.15;;;14.50;;
68475;SDS011;55464;48.266;14.188;2024-02-16T03:00:22;27.10;;;15.75;;
68475;SDS011;55464;48.266;14.188;2024-02-16T03:02:48;23.75;;;14.98;;
68475;SDS011;55464;48.266;14.188;2024-02-16T03:05:14;27.35;;;15.13;;
68475;SDS011;55464;48.266;14.188;2024-02-16T03:07:40;26.73;;;15.27;;
68475;SDS011;55464;48.266;14.188;2024-02-16T03:10:06;26.17;;;16.15;;
68475;SDS011;55464;48.266;14.188;2024-02-16T03:12:34;26.73;;;16.02;;
68475;SDS011;55464;48.266;14.188;2024-02-16T03:15:00;25.60;;;15.48;;
68475;SDS011;55464;48.266;14.188;2024-02-16T03:17:26;27.15;;;16.40;;
68475;SDS011;55464;48.266;14.188;2024-02-16T03:19:51;27.23;;;16.42;;
68475;SDS011;55464;48.266;14.188;2024-02-16T03:22:17;24.92;;;15.75;;
68475;SDS011;55464;48.266;14.188;2024-02-16T03:24:43;31.80;;;17.45;;
68475;SDS011;55464;48.266;14.188;2024-02-16T03:27:10;29.33;;;16.48;;
68475;SDS011;55464;48.266;14.188;2024-02-16T03:29:35;29.02;;;16.52;;
68475;SDS011;55464;48.266;14.188;2024-02-16T03:32:01;27.67;;;15.45;;
68475;SDS011;55464;48.266;14.188;2024-02-16T03:34:27;26.63;;;17.27;;
68475;SDS011;55464;48.266;14.188;2024-02-16T03:36:52;30.63;;;16.90;;
68475;SDS011;55464;48.266;14.188;2024-02-16T03:39:19;29.20;;;17.27;;
68475;SDS011;55464;48.266;14.188;2024-02-16T03:41:45;32.67;;;17.45;;
68475;SDS011;55464;48.266;14.188;2024-02-16T03:44:13;34.92;;;18.40;;
68475;SDS011;55464;48.266;14.188;2024-02-16T03:46:40;28.00;;;17.50;;
68475;SDS011;55464;48.266;14.188;2024-02-16T03:49:05;29.48;;;17.70;;
68475;SDS011;55464;48.266;14.188;2024-02-16T03:51:31;27.90;;;16.73;;
68475;SDS011;55464;48.266;14.188;2024-02-16T03:53:56;30.02;;;17.75;;
68475;SDS011;55464;48.266;14.188;2024-02-16T03:56:22;34.38;;;18.80;;
68475;SDS011;55464;48.266;14.188;2024-02-16T03:58:47;29.98;;;18.00;;
68475;SDS011;55464;48.266;14.188;2024-02-16T04:01:13;33.03;;;19.05;;
68475;SDS011;55464;48.266;14.188;2024-02-16T04:03:38;32.70;;;18.75;;
68475;SDS011;55464;48.266;14.188;2024-02-16T04:06:04;29.65;;;17.77;;
68475;SDS011;55464;48.266;14.188;2024-02-16T04:08:29;32.50;;;18.58;;
68475;SDS011;55464;48.266;14.188;2024-02-16T04:10:55;30.92;;;18.38;;
68475;SDS011;55464;48.266;14.188;2024-02-16T04:13:20;30.63;;;18.67;;
68475;SDS011;55464;48.266;14.188;2024-02-16T04:15:46;32.05;;;18.45;;
68475;SDS011;55464;48.266;14.188;2024-02-16T04:18:11;32.45;;;19.90;;
68475;SDS011;55464;48.266;14.188;2024-02-16T04:20:37;29.83;;;17.13;;
68475;SDS011;55464;48.266;14.188;2024-02-16T04:23:03;30.20;;;17.73;;
68475;SDS011;55464;48.266;14.188;2024-02-16T04:25:28;27.95;;;17.30;;
68475;SDS011;55464;48.266;14.188;2024-02-16T04:27:54;27.85;;;17.52;;
68475;SDS011;55464;48.266;14.188;2024-02-16T04:30:19;29.23;;;17.52;;
68475;SDS011;55464;48.266;14.188;2024-02-16T04:32:45;28.58;;;17.27;;
68475;SDS011;55464;48.266;14.188;2024-02-16T04:35:10;33.25;;;17.75;;
68475;SDS011;55464;48.266;14.188;2024-02-16T04:37:39;30.17;;;16.97;;
68475;SDS011;55464;48.266;14.188;2024-02-16T04:40:05;28.80;;;16.70;;
68475;SDS011;55464;48.266;14.188;2024-02-16T04:42:31;28.73;;;16.95;;
68475;SDS011;55464;48.266;14.188;2024-02-16T04:44:57;29.25;;;16.95;;
68475;SDS011;55464;48.266;14.188;2024-02-16T04:47:22;27.42;;;17.08;;
68475;SDS011;55464;48.266;14.188;2024-02-16T04:49:50;27.38;;;16.55;;
68475;SDS011;55464;48.266;14.188;2024-02-16T04:52:15;24.23;;;15.93;;
68475;SDS011;55464;48.266;14.188;2024-02-16T04:54:40;29.60;;;16.95;;
68475;SDS011;55464;48.266;14.188;2024-02-16T04:57:06;26.58;;;16.55;;
68475;SDS011;55464;48.266;14.188;2024-02-16T04:59:32;25.60;;;16.25;;
68475;SDS011;55464;48.266;14.188;2024-02-16T05:01:57;29.75;;;17.15;;
68475;SDS011;55464;48.266;14.188;2024-02-16T05:04:23;29.75;;;17.38;;
68475;SDS011;55464;48.266;14.188;2024-02-16T05:06:48;29.70;;;16.98;;
68475;SDS011;55464;48.266;14.188;2024-02-16T05:09:15;30.65;;;18.10;;
68475;SDS011;55464;48.266;14.188;2024-02-16T05:11:42;32.10;;;18.05;;
68475;SDS011;55464;48.266;14.188;2024-02-16T05:14:08;27.60;;;16.30;;
68475;SDS011;55464;48.266;14.188;2024-02-16T05:16:33;29.38;;;17.58;;
68475;SDS011;55464;48.266;14.188;2024-02-16T05:18:58;30.75;;;18.48;;
68475;SDS011;55464;48.266;14.188;2024-02-16T05:21:24;30.05;;;17.67;;
68475;SDS011;55464;48.266;14.188;2024-02-16T05:23:49;31.05;;;18.13;;
68475;SDS011;55464;48.266;14.188;2024-02-16T05:26:15;30.80;;;17.25;;
68475;SDS011;55464;48.266;14.188;2024-02-16T05:28:40;31.05;;;18.50;;
68475;SDS011;55464;48.266;14.188;2024-02-16T05:31:16;33.67;;;19.20;;
68475;SDS011;55464;48.266;14.188;2024-02-16T05:33:44;37.97;;;20.42;;
68475;SDS011;55464;48.266;14.188;2024-02-16T05:36:11;31.95;;;19.08;;
68475;SDS011;55464;48.266;14.188;2024-02-16T05:38:37;32.85;;;19.10;;
68475;SDS011;55464;48.266;14.188;2024-02-16T05:41:09;33.80;;;19.77;;
68475;SDS011;55464;48.266;14.188;2024-02-16T05:43:36;37.53;;;20.33;;
68475;SDS011;55464;48.266;14.188;2024-02-16T05:46:03;39.08;;;20.92;;
68475;SDS011;55464;48.266;14.188;2024-02-16T05:48:31;39.35;;;22.40;;
68475;SDS011;55464;48.266;14.188;2024-02-16T05:51:05;36.45;;;20.88;;
68475;SDS011;55464;48.266;14.188;2024-02-16T05:53:31;37.15;;;21.02;;
68475;SDS011;55464;48.266;14.188;2024-02-16T05:55:59;39.30;;;21.08;;
68475;SDS011;55464;48.266;14.188;2024-02-16T05:58:25;39.70;;;22.13;;
68475;SDS011;55464;48.266;14.188;2024-02-16T06:00:51;37.78;;;21.73;;
68475;SDS011;55464;48.266;14.188;2024-02-16T06:03:16;35.92;;;20.48;;
68475;SDS011;55464;48.266;14.188;2024-02-16T06:05:42;34.15;;;20.17;;
68475;SDS011;55464;48.266;14.188;2024-02-16T06:08:11;36.95;;;20.38;;
68475;SDS011;55464;48.266;14.188;2024-02-16T06:10:37;42.78;;;21.60;;
68475;SDS011;55464;48.266;14.188;2024-02-16T06:13:02;36.42;;;21.20;;
68475;SDS011;55464;48.266;14.188;2024-02-16T06:15:28;39.65;;;22.40;;
68475;SDS011;55464;48.266;14.188;2024-02-16T06:17:53;32.97;;;19.88;;
68475;SDS011;55464;48.266;14.188;2024-02-16T06:20:19;35.45;;;19.38;;
68475;SDS011;55464;48.266;14.188;2024-02-16T06:22:44;35.53;;;20.05;;
68475;SDS011;55464;48.266;14.188;2024-02-16T06:25:10;35.00;;;20.45;;
68475;SDS011;55464;48.266;14.188;2024-02-16T06:27:35;33.58;;;19.63;;
68475;SDS011;55464;48.266;14.188;2024-02-16T06:30:02;40.45;;;21.08;;
68475;SDS011;55464;48.266;14.188;2024-02-16T06:32:32;42.45;;;19.40;;
68475;SDS011;55464;48.266;14.188;2024-02-16T06:34:58;34.00;;;19.48;;
68475;SDS011;55464;48.266;14.188;2024-02-16T06:37:23;42.63;;;20.65;;
68475;SDS011;55464;48.266;14.188;2024-02-16T06:39:49;36.95;;;20.95;;
68475;SDS011;55464;48.266;14.188;2024-02-16T06:42:14;32.65;;;19.08;;
68475;SDS011;55464;48.266;14.188;2024-02-16T06:44:40;38.97;;;20.15;;
68475;SDS011;55464;48.266;14.188;2024-02-16T06:47:05;38.70;;;20.83;;
68475;SDS011;55464;48.266;14.188;2024-02-16T06:49:31;35.80;;;19.55;;
68475;SDS011;55464;48.266;14.188;2024-02-16T06:51:57;39.00;;;21.50;;
68475;SDS011;55464;48.266;14.188;2024-02-16T06:54:22;36.45;;;20.95;;
68475;SDS011;55464;48.266;14.188;2024-02-16T06:56:49;37.85;;;20.95;;
68475;SDS011;55464;48.266;14.188;2024-02-16T06:59:16;63.10;;;21.40;;
68475;SDS011;55464;48.266;14.188;2024-02-16T07:01:42;35.80;;;20.83;;
68475;SDS011;55464;48.266;14.188;2024-02-16T07:04:08;42.65;;;20.67;;
68475;SDS011;55464;48.266;14.188;2024-02-16T07:06:34;33.05;;;19.73;;
68475;SDS011;55464;48.266;14.188;2024-02-16T07:09:00;41.75;;;20.70;;
68475;SDS011;55464;48.266;14.188;2024-02-16T07:11:26;36.50;;;20.10;;
68475;SDS011;55464;48.266;14.188;2024-02-16T07:13:52;39.35;;;20.42;;
68475;SDS011;55464;48.266;14.188;2024-02-16T07:16:18;39.75;;;20.98;;
68475;SDS011;55464;48.266;14.188;2024-02-16T07:18:44;38.25;;;21.23;;
68475;SDS011;55464;48.266;14.188;2024-02-16T07:21:09;45.97;;;21.00;;
68475;SDS011;55464;48.266;14.188;2024-02-16T07:23:35;41.63;;;21.67;;
68475;SDS011;55464;48.266;14.188;2024-02-16T07:26:00;45.42;;;22.67;;
68475;SDS011;55464;48.266;14.188;2024-02-16T07:28:26;47.30;;;23.52;;
68475;SDS011;55464;48.266;14.188;2024-02-16T07:30:52;42.28;;;21.83;;
68475;SDS011;55464;48.266;14.188;2024-02-16T07:33:18;43.08;;;22.15;;
68475;SDS011;55464;48.266;14.188;2024-02-16T07:35:44;53.53;;;22.85;;
68475;SDS011;55464;48.266;14.188;2024-02-16T07:38:09;45.25;;;22.45;;
68475;SDS011;55464;48.266;14.188;2024-02-16T07:40:35;42.47;;;22.45;;
68475;SDS011;55464;48.266;14.188;2024-02-16T07:43:01;42.78;;;21.55;;
68475;SDS011;55464;48.266;14.188;2024-02-16T07:45:28;47.05;;;23.75;;
68475;SDS011;55464;48.266;14.188;2024-02-16T07:47:54;47.78;;;22.38;;
68475;SDS011;55464;48.266;14.188;2024-02-16T07:50:21;45.13;;;22.02;;
68475;SDS011;55464;48.266;14.188;2024-02-16T07:52:48;60.03;;;22.67;;
68475;SDS011;55464;48.266;14.188;2024-02-16T07:55:14;44.03;;;22.35;;
68475;SDS011;55464;48.266;14.188;2024-02-16T07:57:43;43.42;;;21.98;;
68475;SDS011;55464;48.266;14.188;2024-02-16T08:00:09;47.33;;;22.50;;
68475;SDS011;55464;48.266;14.188;2024-02-16T08:02:36;48.65;;;22.70;;
68475;SDS011;55464;48.266;14.188;2024-02-16T08:05:01;48.75;;;22.67;;
68475;SDS011;55464;48.266;14.188;2024-02-16T08:07:27;55.20;;;23.92;;
68475;SDS011;55464;48.266;14.188;2024-02-16T08:09:53;47.25;;;22.98;;
68475;SDS011;55464;48.266;14.188;2024-02-16T08:12:18;55.90;;;24.20;;
68475;SDS011;55464;48.266;14.188;2024-02-16T08:14:43;50.13;;;23.60;;
68475;SDS011;55464;48.266;14.188;2024-02-16T08:17:11;54.30;;;24.52;;
68475;SDS011;55464;48.266;14.188;2024-02-16T08:19:36;57.88;;;23.08;;
68475;SDS011;55464;48.266;14.188;2024-02-16T08:22:03;48.90;;;22.73;;
68475;SDS011;55464;48.266;14.188;2024-02-16T08:24:34;49.40;;;24.25;;
68475;SDS011;55464;48.266;14.188;2024-02-16T08:27:00;44.83;;;22.80;;
68475;SDS011;55464;48.266;14.188;2024-02-16T08:29:26;50.00;;;23.02;;
68475;SDS011;55464;48.266;14.188;2024-02-16T08:31:52;54.65;;;25.38;;
68475;SDS011;55464;48.266;14.188;2024-02-16T08:34:19;53.42;;;25.00;;
68475;SDS011;55464;48.266;14.188;2024-02-16T08:36:46;47.22;;;23.42;;
68475;SDS011;55464;48.266;14.188;2024-02-16T08:39:12;47.00;;;24.17;;
68475;SDS011;55464;48.266;14.188;2024-02-16T08:41:38;45.83;;;23.30;;
68475;SDS011;55464;48.266;14.188;2024-02-16T08:44:04;57.45;;;25.73;;
68475;SDS011;55464;48.266;14.188;2024-02-16T08:46:32;61.60;;;26.55;;
68475;SDS011;55464;48.266;14.188;2024-02-16T08:48:58;58.25;;;27.30;;
68475;SDS011;55464;48.266;14.188;2024-02-16T08:51:23;56.50;;;25.60;;
68475;SDS011;55464;48.266;14.188;2024-02-16T08:53:49;47.67;;;24.48;;
68475;SDS011;55464;48.266;14.188;2024-02-16T08:56:14;50.58;;;24.95;;
68475;SDS011;55464;48.266;14.188;2024-02-16T08:58:41;54.58;;;25.27;;
68475;SDS011;55464;48.266;14.188;2024-02-16T09:01:06;45.72;;;23.88;;
68475;SDS011;55464;48.266;14.188;2024-02-16T09:03:31;51.25;;;24.73;;
68475;SDS011;55464;48.266;14.188;2024-02-16T09:06:02;50.83;;;25.83;;
68475;SDS011;55464;48.266;14.188;2024-02-16T09:08:28;55.72;;;25.58;;
68475;SDS011;55464;48.266;14.188;2024-02-16T09:10:58;54.83;;;25.45;;
68475;SDS011;55464;48.266;14.188;2024-02-16T09:13:33;50.78;;;24.50;;
68475;SDS011;55464;48.266;14.188;2024-02-16T09:16:01;50.35;;;24.17;;
68475;SDS011;55464;48.266;14.188;2024-02-16T09:18:28;50.58;;;25.35;;
68475;SDS011;55464;48.266;14.188;2024-02-16T09:20:54;50.97;;;25.95;;
68475;SDS011;55464;48.266;14.188;2024-02-16T09:23:19;56.65;;;26.42;;
68475;SDS011;55464;48.266;14.188;2024-02-16T09:25:44;53.25;;;25.38;;
68475;SDS011;55464;48.266;14.188;2024-02-16T09:28:11;52.35;;;25.60;;
68475;SDS011;55464;48.266;14.188;2024-02-16T09:30:37;48.97;;;25.33;;
68475;SDS011;55464;48.266;14.188;2024-02-16T09:33:03;50.88;;;24.88;;
68475;SDS011;55464;48.266;14.188;2024-02-16T09:35:29;58.00;;;25.95;;
68475;SDS011;55464;48.266;14.188;2024-02-16T09:37:54;53.15;;;25.63;;
68475;SDS011;55464;48.266;14.188;2024-02-16T09:40:21;54.70;;;25.83;;
68475;SDS011;55464;48.266;14.188;2024-02-16T09:42:49;49.13;;;24.83;;
68475;SDS011;55464;48.266;14.188;2024-02-16T09:45:15;50.30;;;24.37;;
68475;SDS011;55464;48.266;14.188;2024-02-16T09:47:50;46.65;;;24.25;;
68475;SDS011;55464;48.266;14.188;2024-02-16T09:50:17;47.38;;;23.80;;
68475;SDS011;55464;48.266;14.188;2024-02-16T09:52:46;47.08;;;23.65;;
68475;SDS011;55464;48.266;14.188;2024-02-16T09:55:14;47.42;;;23.88;;
68475;SDS011;55464;48.266;14.188;2024-02-16T09:57:40;42.33;;;22.95;;
68475;SDS011;55464;48.266;14.188;2024-02-16T10:00:06;38.65;;;22.05;;
68475;SDS011;55464;48.266;14.188;2024-02-16T10:02:44;42.55;;;23.33;;
68475;SDS011;55464;48.266;14.188;2024-02-16T10:07:36;48.50;;;25.10;;
68475;SDS011;55464;48.266;14.188;2024-02-16T10:10:02;47.08;;;23.27;;
68475;SDS011;55464;48.266;14.188;2024-02-16T10:12:27;38.53;;;22.10;;
68475;SDS011;55464;48.266;14.188;2024-02-16T10:14:54;38.25;;;22.23;;
68475;SDS011;55464;48.266;14.188;2024-02-16T10:17:20;42.30;;;23.23;;
68475;SDS011;55464;48.266;14.188;2024-02-16T10:19:54;43.70;;;23.65;;
68475;SDS011;55464;48.266;14.188;2024-02-16T10:22:21;40.53;;;23.27;;
68475;SDS011;55464;48.266;14.188;2024-02-16T10:24:48;41.10;;;22.55;;
68475;SDS011;55464;48.266;14.188;2024-02-16T10:27:15;41.72;;;22.40;;
68475;SDS011;55464;48.266;14.188;2024-02-16T10:29:46;38.30;;;21.60;;
68475;SDS011;55464;48.266;14.188;2024-02-16T10:32:15;45.50;;;23.20;;
68475;SDS011;55464;48.266;14.188;2024-02-16T10:34:41;38.35;;;22.17;;
68475;SDS011;55464;48.266;14.188;2024-02-16T10:37:11;40.03;;;22.52;;
68475;SDS011;55464;48.266;14.188;2024-02-16T10:39:37;35.75;;;21.30;;
68475;SDS011;55464;48.266;14.188;2024-02-16T10:42:05;38.25;;;22.08;;
68475;SDS011;55464;48.266;14.188;2024-02-16T10:44:31;40.15;;;22.13;;
68475;SDS011;55464;48.266;14.188;2024-02-16T10:46:58;38.42;;;21.85;;
68475;SDS011;55464;48.266;14.188;2024-02-16T10:49:24;37.20;;;20.88;;
68475;SDS011;55464;48.266;14.188;2024-02-16T10:51:52;39.17;;;21.50;;
68475;SDS011;55464;48.266;14.188;2024-02-16T10:54:23;34.67;;;21.50;;
68475;SDS011;55464;48.266;14.188;2024-02-16T10:56:54;36.75;;;21.75;;
68475;SDS011;55464;48.266;14.188;2024-02-16T10:59:20;37.30;;;21.23;;
68475;SDS011;55464;48.266;14.188;2024-02-16T11:01:46;33.28;;;20.88;;
68475;SDS011;55464;48.266;14.188;2024-02-16T11:04:12;36.10;;;21.17;;
68475;SDS011;55464;48.266;14.188;2024-02-16T11:06:48;31.15;;;18.92;;
68475;SDS011;55464;48.266;14.188;2024-02-16T11:09:23;37.22;;;19.70;;
68475;SDS011;55464;48.266;14.188;2024-02-16T11:11:53;34.47;;;20.38;;
68475;SDS011;55464;48.266;14.188;2024-02-16T11:14:34;36.70;;;19.88;;
68475;SDS011;55464;48.266;14.188;2024-02-16T11:17:01;34.22;;;20.83;;
68475;SDS011;55464;48.266;14.188;2024-02-16T11:19:27;32.25;;;19.88;;
68475;SDS011;55464;48.266;14.188;2024-02-16T11:21:55;33.35;;;20.58;;
68475;SDS011;55464;48.266;14.188;2024-02-16T11:24:29;34.10;;;20.17;;
68475;SDS011;55464;48.266;14.188;2024-02-16T11:26:55;60.45;;;22.35;;
68475;SDS011;55464;48.266;14.188;2024-02-16T11:29:21;52.45;;;24.17;;
68475;SDS011;55464;48.266;14.188;2024-02-16T11:31:47;56.75;;;24.85;;
68475;SDS011;55464;48.266;14.188;2024-02-16T11:34:25;59.40;;;25.48;;
68475;SDS011;55464;48.266;14.188;2024-02-16T11:36:52;56.03;;;25.30;;
68475;SDS011;55464;48.266;14.188;2024-02-16T11:39:19;55.90;;;25.13;;
68475;SDS011;55464;48.266;14.188;2024-02-16T11:41:44;60.33;;;26.90;;
68475;SDS011;55464;48.266;14.188;2024-02-16T11:44:12;58.15;;;24.92;;
68475;SDS011;55464;48.266;14.188;2024-02-16T11:46:38;53.80;;;23.25;;
68475;SDS011;55464;48.266;14.188;2024-02-16T11:49:07;59.63;;;24.77;;
68475;SDS011;55464;48.266;14.188;2024-02-16T11:51:33;53.50;;;25.67;;
68475;SDS011;55464;48.266;14.188;2024-02-16T11:53:58;60.55;;;25.20;;
68475;SDS011;55464;48.266;14.188;2024-02-16T11:56:24;53.72;;;23.70;;
68475;SDS011;55464;48.266;14.188;2024-02-16T11:58:51;50.97;;;24.80;;
68475;SDS011;55464;48.266;14.188;2024-02-16T12:01:17;50.70;;;23.35;;
68475;SDS011;55464;48.266;14.188;2024-02-16T12:03:43;47.10;;;23.40;;
68475;SDS011;55464;48.266;14.188;2024-02-16T12:06:08;50.28;;;23.60;;
68475;SDS011;55464;48.266;14.188;2024-02-16T12:08:34;55.15;;;24.52;;
68475;SDS011;55464;48.266;14.188;2024-02-16T12:11:00;48.60;;;24.20;;
68475;SDS011;55464;48.266;14.188;2024-02-16T12:13:27;50.13;;;23.40;;
68475;SDS011;55464;48.266;14.188;2024-02-16T12:15:53;53.40;;;24.25;;
68475;SDS011;55464;48.266;14.188;2024-02-16T12:18:25;54.75;;;25.08;;
68475;SDS011;55464;48.266;14.188;2024-02-16T12:21:03;47.78;;;22.92;;
68475;SDS011;55464;48.266;14.188;2024-02-16T12:23:31;49.40;;;23.67;;
68475;SDS011;55464;48.266;14.188;2024-02-16T12:26:00;48.78;;;22.63;;
68475;SDS011;55464;48.266;14.188;2024-02-16T12:28:27;45.08;;;22.25;;
68475;SDS011;55464;48.266;14.188;2024-02-16T12:30:56;46.75;;;22.88;;
68475;SDS011;55464;48.266;14.188;2024-02-16T12:33:23;47.55;;;21.27;;
68475;SDS011;55464;48.266;14.188;2024-02-16T12:35:49;41.72;;;21.35;;
68475;SDS011;55464;48.266;14.188;2024-02-16T12:38:15;45.97;;;23.00;;
68475;SDS011;55464;48.266;14.188;2024-02-16T12:40:47;41.57;;;21.53;;
68475;SDS011;55464;48.266;14.188;2024-02-16T12:43:12;41.72;;;22.92;;
68475;SDS011;55464;48.266;14.188;2024-02-16T12:45:39;39.03;;;20.75;;
68475;SDS011;55464;48.266;14.188;2024-02-16T12:48:05;42.15;;;21.33;;
68475;SDS011;55464;48.266;14.188;2024-02-16T12:50:31;39.55;;;20.83;;
68475;SDS011;55464;48.266;14.188;2024-02-16T12:52:57;43.55;;;21.70;;
68475;SDS011;55464;48.266;14.188;2024-02-16T12:55:23;46.60;;;23.52;;
68475;SDS011;55464;48.266;14.188;2024-02-16T12:57:49;44.33;;;22.70;;
68475;SDS011;55464;48.266;14.188;2024-02-16T13:00:16;37.40;;;20.95;;
68475;SDS011;55464;48.266;14.188;2024-02-16T13:02:42;43.95;;;21.50;;
68475;SDS011;55464;48.266;14.188;2024-02-16T13:05:07;40.22;;;21.27;;
68475;SDS011;55464;48.266;14.188;2024-02-16T13:07:33;37.70;;;20.67;;
68475;SDS011;55464;48.266;14.188;2024-02-16T13:09:59;35.45;;;20.50;;
68475;SDS011;55464;48.266;14.188;2024-02-16T13:12:25;38.90;;;20.88;;
68475;SDS011;55464;48.266;14.188;2024-02-16T13:14:50;39.75;;;20.02;;
68475;SDS011;55464;48.266;14.188;2024-02-16T13:17:16;41.47;;;20.55;;
68475;SDS011;55464;48.266;14.188;2024-02-16T13:19:42;35.22;;;20.17;;
68475;SDS011;55464;48.266;14.188;2024-02-16T13:22:07;35.50;;;20.77;;
68475;SDS011;55464;48.266;14.188;2024-02-16T13:24:33;35.45;;;20.35;;
68475;SDS011;55464;48.266;14.188;2024-02-16T13:26:59;36.45;;;20.98;;
68475;SDS011;55464;48.266;14.188;2024-02-16T13:29:25;34.90;;;19.67;;
68475;SDS011;55464;48.266;14.188;2024-02-16T13:31:50;33.80;;;19.73;;
68475;SDS011;55464;48.266;14.188;2024-02-16T13:34:16;33.45;;;19.33;;
68475;SDS011;55464;48.266;14.188;2024-02-16T13:36:41;33.05;;;18.65;;
68475;SDS011;55464;48.266;14.188;2024-02-16T13:39:07;35.95;;;19.17;;
68475;SDS011;55464;48.266;14.188;2024-02-16T13:41:33;29.95;;;17.92;;
68475;SDS011;55464;48.266;14.188;2024-02-16T13:43:59;32.00;;;17.00;;
68475;SDS011;55464;48.266;14.188;2024-02-16T13:46:25;36.22;;;18.48;;
68475;SDS011;55464;48.266;14.188;2024-02-16T13:48:50;31.83;;;18.08;;
68475;SDS011;55464;48.266;14.188;2024-02-16T13:51:16;30.98;;;18.45;;
68475;SDS011;55464;48.266;14.188;2024-02-16T13:53:41;30.50;;;16.67;;
68475;SDS011;55464;48.266;14.188;2024-02-16T13:56:07;29.85;;;17.38;;
68475;SDS011;55464;48.266;14.188;2024-02-16T13:58:33;27.48;;;17.02;;
68475;SDS011;55464;48.266;14.188;2024-02-16T14:00:59;28.55;;;17.08;;
68475;SDS011;55464;48.266;14.188;2024-02-16T14:03:26;26.10;;;16.65;;
68475;SDS011;55464;48.266;14.188;2024-02-16T14:05:52;30.17;;;15.95;;
68475;SDS011;55464;48.266;14.188;2024-02-16T14:08:17;27.60;;;17.35;;